createdAt,value
2019-05-17T14:31:25.242Z,2.20
2019-05-17T14:32:25.218Z,2.60
2019-05-17T14:33:25.209Z,2.80
2019-05-17T14:34:25.187Z,3.80
2019-05-17T14:35:25.176Z,1.80
2019-05-17T14:36:25.173Z,1.90
2019-05-17T14:37:25.143Z,1.60
2019-05-17T14:38:25.129Z,1.80
2019-05-17T14:39:25.118Z,2.70
2019-05-17T14:40:25.130Z,2.00
2019-05-17T14:41:25.085Z,1.90
2019-05-17T14:42:25.075Z,1.50
2019-05-17T14:43:25.077Z,1.20
2019-05-17T14:44:25.093Z,2.30
2019-05-17T14:45:25.049Z,1.70
2019-05-17T14:46:25.032Z,1.30
2019-05-17T14:47:25.052Z,1.70
2019-05-17T14:48:25.074Z,2.30
2019-05-17T14:49:25.025Z,2.00
2019-05-17T14:50:25.003Z,3.20
2019-05-17T14:51:25.006Z,1.70
2019-05-17T14:52:25.036Z,1.80
2019-05-17T14:53:24.978Z,2.40
2019-05-17T14:54:24.960Z,2.40
2019-05-17T14:55:24.958Z,1.40
2019-05-17T14:56:24.973Z,1.40
2019-05-17T14:57:24.949Z,2.50
2019-05-17T14:58:24.948Z,2.10
2019-05-17T14:59:24.945Z,2.30
2019-05-17T15:00:24.928Z,1.70
2019-05-17T15:01:24.906Z,1.80
2019-05-17T15:02:24.965Z,1.80
2019-05-17T15:03:24.913Z,1.70
2019-05-17T15:04:24.899Z,2.80
2019-05-17T15:05:24.869Z,1.40
2019-05-17T15:06:24.872Z,2.30
2019-05-17T15:07:24.857Z,2.90
2019-05-17T15:08:24.865Z,1.80
2019-05-17T15:09:24.878Z,1.40
2019-05-17T15:10:24.833Z,2.20
2019-05-17T15:11:24.824Z,2.20
2019-05-17T15:12:28.203Z,3.00
2019-05-17T15:13:24.807Z,3.00
2019-05-17T15:14:24.804Z,2.90
2019-05-17T15:15:26.250Z,3.00
2019-05-17T15:16:24.799Z,3.20
2019-05-17T15:17:24.777Z,2.20
2019-05-17T15:18:24.792Z,1.90
2019-05-17T15:19:24.779Z,2.10
2019-05-17T15:20:24.763Z,1.70
2019-05-17T15:21:24.772Z,1.60
2019-05-17T15:22:24.756Z,2.20
2019-05-17T15:23:24.739Z,2.40
2019-05-17T15:24:24.721Z,2.00
2019-05-17T15:25:24.732Z,2.40
2019-05-17T15:26:24.729Z,2.70
2019-05-17T15:27:25.050Z,2.20
2019-05-17T15:28:24.697Z,2.10
2019-05-17T15:29:24.700Z,2.60
2019-05-17T15:30:24.689Z,2.80
2019-05-17T15:31:24.660Z,4.70
2019-05-17T15:32:24.979Z,3.00
2019-05-17T15:33:24.679Z,2.50
2019-05-17T15:34:24.673Z,2.60
2019-05-17T15:35:24.654Z,1.60
2019-05-17T15:36:24.631Z,2.80
2019-05-17T15:37:24.631Z,1.70
2019-05-17T15:38:24.621Z,2.80
2019-05-17T15:39:24.647Z,1.60
2019-05-17T15:40:24.589Z,1.90
2019-05-17T15:41:24.589Z,1.90
2019-05-17T15:42:24.606Z,1.70
2019-05-17T15:43:24.577Z,2.20
2019-05-17T15:44:26.957Z,2.90
2019-05-17T15:45:24.616Z,2.10
2019-05-17T15:46:24.640Z,2.70
2019-05-17T15:47:24.554Z,1.50
2019-05-17T15:48:24.546Z,1.80
2019-05-17T15:49:24.549Z,2.50
2019-05-17T15:50:24.541Z,2.70
2019-05-17T15:51:24.578Z,2.70
2019-05-17T15:52:24.562Z,5.40
2019-05-17T15:53:24.503Z,5.20
2019-05-17T15:54:24.505Z,3.40
2019-05-17T15:55:24.500Z,3.20
2019-05-17T15:56:24.479Z,2.00
2019-05-17T15:57:24.601Z,2.80
2019-05-17T15:58:24.461Z,3.30
2019-05-17T15:59:24.510Z,3.70
2019-05-17T16:00:24.477Z,3.50
2019-05-17T16:01:24.447Z,3.40
2019-05-17T16:02:26.077Z,3.30
2019-05-17T16:03:24.434Z,3.00
2019-05-17T16:04:24.431Z,2.60
2019-05-17T16:05:24.453Z,2.40
2019-05-17T16:06:24.405Z,4.50
2019-05-17T16:07:24.396Z,3.30
2019-05-17T16:08:24.383Z,3.70
2019-05-17T16:09:24.451Z,3.70
2019-05-17T16:10:24.362Z,3.80
2019-05-17T16:11:24.380Z,5.40
2019-05-17T16:12:24.341Z,4.00
2019-05-17T16:13:24.356Z,3.50
2019-05-17T16:14:24.514Z,3.60
2019-05-17T16:15:24.340Z,3.20
2019-05-17T16:16:24.329Z,3.50
2019-05-17T16:17:24.301Z,3.70
2019-05-17T16:18:24.331Z,3.70
2019-05-17T16:19:24.300Z,3.60
2019-05-17T16:20:24.291Z,2.40
2019-05-17T16:21:24.283Z,2.30
2019-05-17T16:22:24.279Z,3.80
2019-05-17T16:23:24.310Z,2.30
2019-05-17T16:24:24.249Z,2.80
2019-05-17T16:25:24.240Z,2.00
2019-05-17T16:26:24.238Z,5.00
2019-05-17T16:27:24.245Z,3.60
2019-05-17T16:28:24.226Z,3.00
2019-05-17T16:29:24.199Z,4.30
2019-05-17T16:30:24.292Z,4.80
2019-05-17T16:31:24.222Z,4.80
2019-05-17T16:32:24.195Z,5.80
2019-05-17T16:33:24.184Z,5.80
2019-05-17T16:34:24.181Z,2.40
2019-05-17T16:35:24.199Z,2.60
2019-05-17T16:36:24.153Z,2.70
2019-05-17T16:37:24.181Z,2.50
2019-05-17T16:38:24.194Z,2.20
2019-05-17T16:39:24.148Z,2.80
2019-05-17T16:40:24.134Z,3.80
2019-05-17T16:41:24.143Z,2.90
2019-05-17T16:42:24.144Z,2.30
2019-05-17T16:43:24.114Z,2.90
2019-05-17T16:44:24.100Z,2.90
2019-05-17T16:45:24.082Z,3.10
2019-05-17T16:46:24.070Z,3.50
2019-05-17T16:47:24.070Z,3.20
2019-05-17T16:48:24.100Z,3.00
2019-05-17T16:49:24.078Z,4.50
2019-05-17T16:50:24.068Z,6.10
2019-05-17T16:51:24.036Z,5.70
2019-05-17T16:52:24.057Z,6.80
2019-05-17T16:53:24.020Z,5.80
2019-05-17T16:54:24.044Z,6.80
2019-05-17T16:55:26.061Z,6.50
2019-05-17T16:56:24.005Z,7.90
2019-05-17T16:57:23.986Z,7.00
2019-05-17T16:58:23.997Z,7.80
2019-05-17T16:59:23.981Z,7.60
2019-05-17T17:00:24.011Z,7.40
2019-05-17T17:01:23.967Z,7.70
2019-05-17T17:02:23.961Z,9.00
2019-05-17T17:03:24.114Z,9.20
2019-05-17T17:04:23.938Z,8.20
2019-05-17T17:05:23.932Z,8.20
2019-05-17T17:06:23.906Z,12.30
2019-05-17T17:07:23.924Z,9.00
2019-05-17T17:08:23.910Z,9.90
2019-05-17T17:09:23.897Z,9.70
2019-05-17T17:10:23.906Z,10.50
2019-05-17T17:11:23.864Z,9.50
2019-05-17T17:12:23.881Z,8.20
2019-05-17T17:13:32.853Z,9.60
2019-05-17T17:14:23.864Z,9.30
2019-05-17T17:15:23.894Z,11.10
2019-05-17T17:16:23.846Z,8.10
2019-05-17T17:17:23.841Z,10.50
2019-05-17T17:18:23.821Z,11.00
2019-05-17T17:19:23.805Z,10.20
2019-05-17T17:20:23.805Z,11.90
2019-05-17T17:21:23.840Z,10.40
2019-05-17T17:22:23.773Z,11.00
2019-05-17T17:23:23.829Z,11.30
2019-05-17T17:24:23.786Z,11.90
2019-05-17T17:25:23.769Z,10.90
2019-05-17T17:26:23.739Z,11.90
2019-05-17T17:27:23.746Z,10.60
2019-05-17T17:28:25.479Z,11.70
2019-05-17T17:29:23.725Z,14.10
2019-05-17T17:30:23.716Z,13.40
2019-05-17T17:31:23.732Z,14.80
2019-05-17T17:32:23.688Z,17.30
2019-05-17T17:33:23.679Z,15.50
2019-05-17T17:34:23.665Z,16.40
2019-05-17T17:35:23.678Z,17.80
2019-05-17T17:36:23.924Z,15.70
2019-05-17T17:37:23.672Z,13.90
2019-05-17T17:38:23.690Z,14.50
2019-05-17T17:39:23.631Z,15.90
2019-05-17T17:40:23.627Z,13.90
2019-05-17T17:41:26.352Z,12.70
2019-05-17T17:42:23.613Z,12.70
2019-05-17T17:43:23.614Z,12.80
2019-05-17T17:44:23.614Z,12.50
2019-05-17T17:45:23.579Z,13.90
2019-05-17T17:46:23.561Z,13.60
2019-05-17T17:47:23.875Z,13.40
2019-05-17T17:48:23.558Z,14.40
2019-05-17T17:49:23.567Z,17.40
2019-05-17T17:50:23.578Z,13.10
2019-05-17T17:51:23.582Z,13.70
2019-05-17T17:52:23.543Z,14.30
2019-05-17T17:53:23.520Z,13.40
2019-05-17T17:54:23.529Z,15.70
2019-05-17T17:55:23.501Z,14.90
2019-05-17T17:56:23.501Z,15.60
2019-05-17T17:57:23.481Z,14.30
2019-05-17T17:58:23.484Z,14.10
2019-05-17T17:59:23.469Z,13.10
2019-05-17T18:00:23.456Z,12.70
2019-05-17T18:01:23.469Z,11.80
2019-05-17T18:02:23.463Z,13.00
2019-05-17T18:03:23.438Z,12.00
2019-05-17T18:04:23.834Z,13.10
2019-05-17T18:05:25.128Z,14.90
2019-05-17T18:06:23.414Z,12.10
2019-05-17T18:07:23.403Z,12.50
2019-05-17T18:08:23.424Z,12.30
2019-05-17T18:09:23.373Z,13.20
2019-05-17T18:10:23.379Z,13.30
2019-05-17T18:11:23.365Z,13.90
2019-05-17T18:12:23.400Z,13.00
2019-05-17T18:13:23.371Z,13.50
2019-05-17T18:14:23.354Z,13.70
2019-05-17T18:15:23.329Z,12.90
2019-05-17T18:16:23.320Z,14.50
2019-05-17T18:17:23.311Z,12.80
2019-05-17T18:18:23.319Z,12.60
2019-05-17T18:19:23.332Z,13.60
2019-05-17T18:20:23.700Z,13.60
2019-05-17T18:21:23.340Z,13.90
2019-05-17T18:22:23.259Z,12.90
2019-05-17T18:23:23.658Z,13.80
2019-05-17T18:24:23.256Z,11.10
2019-05-17T18:25:23.280Z,11.60
2019-05-17T18:26:23.267Z,11.70
2019-05-17T18:27:23.253Z,12.50
2019-05-17T18:28:23.229Z,12.30
2019-05-17T18:29:23.226Z,11.40
2019-05-17T18:30:23.219Z,12.30
2019-05-17T18:31:23.205Z,11.90
2019-05-17T18:32:23.205Z,13.50
2019-05-17T18:33:23.160Z,13.00
2019-05-17T18:34:23.185Z,12.30
2019-05-17T18:35:23.167Z,12.90
2019-05-17T18:36:23.194Z,10.80
2019-05-17T18:37:23.150Z,10.50
2019-05-17T18:38:23.198Z,10.80
2019-05-17T18:39:23.146Z,11.20
2019-05-17T18:40:23.114Z,12.10
2019-05-17T18:41:23.135Z,11.20
2019-05-17T18:42:23.145Z,11.10
2019-05-17T18:43:23.112Z,10.60
2019-05-17T18:44:27.887Z,10.70
2019-05-17T18:45:23.346Z,11.00
2019-05-17T18:46:23.066Z,10.50
2019-05-17T18:47:23.065Z,10.50
2019-05-17T18:48:23.317Z,10.80
2019-05-17T18:49:23.052Z,9.50
2019-05-17T18:50:23.087Z,10.10
2019-05-17T18:51:23.055Z,10.40
2019-05-17T18:52:23.078Z,11.00
2019-05-17T18:53:23.007Z,10.60
2019-05-17T18:54:22.991Z,9.70
2019-05-17T18:55:23.043Z,9.90
2019-05-17T18:56:22.982Z,9.50
2019-05-17T18:57:22.983Z,9.50
2019-05-17T18:58:23.002Z,9.90
2019-05-17T18:59:22.935Z,9.50
2019-05-17T19:00:22.958Z,9.30
2019-05-17T19:01:22.955Z,11.30
2019-05-17T19:02:22.925Z,10.60
2019-05-17T19:03:22.929Z,9.70
2019-05-17T19:04:22.950Z,9.90
2019-05-17T19:05:22.902Z,9.60
2019-05-17T19:06:22.943Z,9.60
2019-05-17T19:07:22.894Z,9.70
2019-05-17T19:08:22.922Z,8.80
2019-05-17T19:09:22.881Z,8.70
2019-05-17T19:10:22.904Z,9.10
2019-05-17T19:11:22.869Z,8.70
2019-05-17T19:12:22.895Z,8.60
2019-05-17T19:13:22.842Z,10.40
2019-05-17T19:14:22.819Z,9.30
2019-05-17T19:15:22.822Z,10.00
2019-05-17T19:16:22.818Z,9.30
2019-05-17T19:17:22.795Z,11.00
2019-05-17T19:18:22.778Z,9.50
2019-05-17T19:19:22.803Z,8.50
2019-05-17T19:20:22.767Z,8.70
2019-05-17T19:21:22.753Z,8.70
2019-05-17T19:22:22.767Z,8.90
2019-05-17T19:23:25.659Z,9.10
2019-05-17T19:24:22.752Z,9.00
2019-05-17T19:25:22.702Z,8.60
2019-05-17T19:26:22.714Z,8.40
2019-05-17T19:27:22.720Z,9.30
2019-05-17T19:28:22.712Z,8.70
2019-05-17T19:29:22.699Z,9.70
2019-05-17T19:30:22.672Z,9.00
2019-05-17T19:31:22.679Z,10.70
2019-05-17T19:32:22.672Z,10.10
2019-05-17T19:33:22.675Z,10.20
2019-05-17T19:34:22.650Z,9.50
2019-05-17T19:35:22.645Z,10.40
2019-05-17T19:36:22.638Z,10.80
2019-05-17T19:37:22.624Z,11.10
2019-05-17T19:38:22.583Z,10.20
2019-05-17T19:39:22.615Z,12.20
2019-05-17T19:40:22.576Z,10.60
2019-05-17T19:41:22.585Z,11.10
2019-05-17T19:42:23.263Z,10.60
2019-05-17T19:43:22.566Z,11.50
2019-05-17T19:44:22.556Z,11.60
2019-05-17T19:45:22.552Z,11.60
2019-05-17T19:46:22.533Z,11.20
2019-05-17T19:47:22.536Z,11.10
2019-05-17T19:48:22.495Z,12.10
2019-05-17T19:49:22.551Z,12.40
2019-05-17T19:50:22.486Z,10.60
2019-05-17T19:51:22.492Z,10.80
2019-05-17T19:52:22.464Z,10.20
2019-05-17T19:53:22.460Z,10.40
2019-05-17T19:54:22.456Z,10.70
2019-05-17T19:55:22.490Z,9.70
2019-05-17T19:56:22.447Z,10.10
2019-05-17T19:57:22.466Z,11.80
2019-05-17T19:58:22.450Z,9.50
2019-05-17T19:59:22.395Z,10.50
2019-05-17T20:00:22.403Z,10.50
2019-05-17T20:01:22.375Z,9.30
2019-05-17T20:02:22.387Z,10.50
2019-05-17T20:03:22.385Z,10.50
2019-05-17T20:04:22.363Z,9.70
2019-05-17T20:05:22.338Z,10.30
2019-05-17T20:06:22.328Z,10.10
2019-05-17T20:07:22.322Z,10.10
2019-05-17T20:08:22.356Z,10.10
2019-05-17T20:09:22.308Z,10.10
2019-05-17T20:10:22.360Z,11.60
2019-05-17T20:11:33.606Z,13.10
2019-05-17T20:12:22.283Z,11.90
2019-05-17T20:13:22.300Z,12.90
2019-05-17T20:14:22.309Z,13.20
2019-05-17T20:15:33.518Z,13.90
2019-05-17T20:16:22.246Z,14.00
2019-05-17T20:17:22.231Z,14.60
2019-05-17T20:18:22.237Z,15.40
2019-05-17T20:19:22.221Z,16.70
2019-05-17T20:20:22.256Z,14.90
2019-05-17T20:21:22.205Z,14.70
2019-05-17T20:22:22.202Z,13.60
2019-05-17T20:23:22.181Z,16.10
2019-05-17T20:24:22.182Z,14.60
2019-05-17T20:25:22.174Z,15.70
2019-05-17T20:26:22.159Z,14.40
2019-05-17T20:27:22.154Z,14.50
2019-05-17T20:28:22.124Z,17.10
2019-05-17T20:29:22.135Z,14.70
2019-05-17T20:30:22.119Z,15.50
2019-05-17T20:31:22.114Z,15.60
2019-05-17T20:32:22.097Z,15.90
2019-05-17T20:33:22.092Z,14.40
2019-05-17T20:34:22.076Z,15.90
2019-05-17T20:35:22.077Z,15.50
2019-05-17T20:36:22.103Z,17.00
2019-05-17T20:37:22.049Z,14.70
2019-05-17T20:38:22.040Z,15.40
2019-05-17T20:39:22.027Z,17.80
2019-05-17T20:40:22.050Z,17.00
2019-05-17T20:41:21.989Z,16.40
2019-05-17T20:42:21.997Z,15.40
2019-05-17T20:43:21.984Z,14.60
2019-05-17T20:44:22.031Z,15.70
2019-05-17T20:45:32.542Z,15.40
2019-05-17T20:46:21.958Z,15.20
2019-05-17T20:47:21.937Z,14.90
2019-05-17T20:48:21.918Z,16.00
2019-05-17T20:49:21.919Z,16.80
2019-05-17T20:50:21.925Z,16.60
2019-05-17T20:51:21.921Z,15.70
2019-05-17T20:52:21.900Z,15.30
2019-05-17T20:53:21.912Z,14.90
2019-05-17T20:54:21.872Z,16.10
2019-05-17T20:55:21.843Z,15.20
2019-05-17T20:56:32.374Z,15.00
2019-05-17T20:57:21.835Z,16.00
2019-05-17T20:58:21.838Z,15.20
2019-05-17T20:59:21.858Z,16.10
2019-05-17T21:00:21.815Z,14.50
2019-05-17T21:01:21.807Z,15.10
2019-05-17T21:02:21.810Z,16.10
2019-05-17T21:03:21.783Z,15.40
2019-05-17T21:04:21.783Z,15.80
2019-05-17T21:05:21.763Z,15.20
2019-05-17T21:06:21.770Z,15.70
2019-05-17T21:07:21.751Z,14.50
2019-05-17T21:08:21.731Z,14.40
2019-05-17T21:09:21.724Z,14.80
2019-05-17T21:10:21.707Z,15.20
2019-05-17T21:11:21.730Z,14.60
2019-05-17T21:12:21.742Z,14.00
2019-05-17T21:13:21.697Z,13.40
2019-05-17T21:14:21.695Z,13.90
2019-05-17T21:15:21.699Z,14.10
2019-05-17T21:16:21.641Z,14.00
2019-05-17T21:17:21.669Z,15.00
2019-05-17T21:18:21.648Z,14.20
2019-05-17T21:19:21.655Z,14.80
2019-05-17T21:20:21.628Z,14.40
2019-05-17T21:21:21.587Z,14.50
2019-05-17T21:22:21.587Z,13.10
2019-05-17T21:23:21.596Z,14.20
2019-05-17T21:24:21.587Z,14.50
2019-05-17T21:25:21.569Z,14.50
2019-05-17T21:26:21.575Z,14.40
2019-05-17T21:27:21.534Z,13.90
2019-05-17T21:28:21.552Z,14.20
2019-05-17T21:29:21.547Z,14.10
2019-05-17T21:30:21.529Z,13.80
2019-05-17T21:31:21.503Z,15.10
2019-05-17T21:32:21.515Z,14.20
2019-05-17T21:33:21.479Z,14.70
2019-05-17T21:34:21.459Z,15.70
2019-05-17T21:35:21.464Z,14.10
2019-05-17T21:36:21.453Z,14.50
2019-05-17T21:37:21.458Z,14.60
2019-05-17T21:38:21.484Z,14.30
2019-05-17T21:39:21.492Z,14.30
2019-05-17T21:40:21.432Z,13.50
2019-05-17T21:41:21.406Z,13.50
2019-05-17T21:42:21.406Z,13.90
2019-05-17T21:43:21.407Z,14.40
2019-05-17T21:44:21.360Z,13.40
2019-05-17T21:45:21.373Z,13.90
2019-05-17T21:46:21.361Z,12.90
2019-05-17T21:47:21.349Z,13.50
2019-05-17T21:48:21.348Z,13.10
2019-05-17T21:49:21.339Z,12.80
2019-05-17T21:50:21.309Z,12.50
2019-05-17T21:51:21.800Z,12.50
2019-05-17T21:52:21.300Z,12.40
2019-05-17T21:53:21.301Z,12.80
2019-05-17T21:54:21.279Z,13.00
2019-05-17T21:55:21.279Z,13.70
2019-05-17T21:56:21.256Z,12.10
2019-05-17T21:57:21.547Z,12.50
2019-05-17T21:58:21.242Z,11.90
2019-05-17T21:59:21.246Z,12.30
2019-05-17T22:00:21.226Z,11.20
2019-05-17T22:01:21.197Z,12.00
2019-05-17T22:02:21.205Z,12.30
2019-05-17T22:03:23.160Z,11.90
2019-05-17T22:04:21.158Z,12.30
2019-05-17T22:05:21.175Z,12.50
2019-05-17T22:06:21.175Z,11.70
2019-05-17T22:07:21.132Z,11.00
2019-05-17T22:08:21.157Z,11.70
2019-05-17T22:09:21.533Z,12.00
2019-05-17T22:10:21.122Z,11.70
2019-05-17T22:11:21.126Z,11.20
2019-05-17T22:12:21.104Z,12.00
2019-05-17T22:13:21.089Z,11.20
2019-05-17T22:14:21.120Z,11.30
2019-05-17T22:15:21.488Z,10.90
2019-05-17T22:16:21.083Z,12.30
2019-05-17T22:17:21.039Z,11.00
2019-05-17T22:18:21.036Z,11.80
2019-05-17T22:19:21.023Z,12.30
2019-05-17T22:20:21.033Z,11.40
2019-05-17T22:21:21.256Z,11.10
2019-05-17T22:22:21.020Z,11.60
2019-05-17T22:23:21.014Z,10.90
2019-05-17T22:24:20.958Z,12.20
2019-05-17T22:25:20.978Z,11.10
2019-05-17T22:26:21.300Z,12.00
2019-05-17T22:27:21.003Z,11.90
2019-05-17T22:28:20.941Z,12.50
2019-05-17T22:29:20.951Z,12.20
2019-05-17T22:30:20.928Z,11.80
2019-05-17T22:31:20.929Z,12.40
2019-05-17T22:32:21.407Z,12.60
2019-05-17T22:33:20.899Z,13.00
2019-05-17T22:34:20.872Z,12.70
2019-05-17T22:35:20.880Z,13.10
2019-05-17T22:36:20.848Z,15.30
2019-05-17T22:37:20.847Z,14.20
2019-05-17T22:38:21.054Z,13.00
2019-05-17T22:39:20.838Z,14.10
2019-05-17T22:40:20.827Z,13.00
2019-05-17T22:41:20.806Z,13.70
2019-05-17T22:42:20.818Z,13.50
2019-05-17T22:43:21.157Z,13.70
2019-05-17T22:44:20.799Z,14.60
2019-05-17T22:45:20.791Z,14.00
2019-05-17T22:46:35.145Z,15.50
2019-05-17T22:47:20.767Z,15.40
2019-05-17T22:48:21.102Z,15.60
2019-05-17T22:49:20.723Z,17.00
2019-05-17T22:50:20.727Z,16.90
2019-05-17T22:51:20.727Z,15.40
2019-05-17T22:52:20.717Z,16.40
2019-05-17T22:53:20.996Z,16.20
2019-05-17T22:54:20.681Z,16.70
2019-05-17T22:55:20.688Z,16.80
2019-05-17T22:56:20.651Z,15.00
2019-05-17T22:57:20.706Z,15.00
2019-05-17T22:58:20.933Z,14.30
2019-05-17T22:59:20.629Z,15.60
2019-05-17T23:00:20.628Z,14.60
2019-05-17T23:01:20.614Z,15.40
2019-05-17T23:02:20.602Z,17.10
2019-05-17T23:03:20.940Z,17.10
2019-05-17T23:04:20.585Z,19.00
2019-05-17T23:05:25.919Z,16.00
2019-05-17T23:06:20.556Z,15.00
2019-05-17T23:07:20.553Z,14.00
2019-05-17T23:08:20.815Z,13.80
2019-05-17T23:09:20.525Z,14.30
2019-05-17T23:10:20.541Z,14.90
2019-05-17T23:11:20.538Z,14.10
2019-05-17T23:12:20.514Z,14.40
2019-05-17T23:13:20.863Z,14.30
2019-05-17T23:14:20.498Z,14.00
2019-05-17T23:15:20.488Z,12.40
2019-05-17T23:16:20.478Z,13.50
2019-05-17T23:17:20.511Z,13.70
2019-05-17T23:18:20.873Z,14.90
2019-05-17T23:19:20.433Z,13.80
2019-05-17T23:20:20.437Z,14.00
2019-05-17T23:21:20.431Z,14.20
2019-05-17T23:22:20.436Z,15.10
2019-05-17T23:23:20.389Z,14.30
2019-05-17T23:24:20.708Z,14.70
2019-05-17T23:25:20.369Z,14.70
2019-05-17T23:26:20.373Z,15.00
2019-05-17T23:27:20.361Z,15.50
2019-05-17T23:28:20.367Z,14.80
2019-05-17T23:29:20.380Z,14.40
2019-05-17T23:30:20.545Z,13.80
2019-05-17T23:31:20.310Z,15.90
2019-05-17T23:32:20.364Z,15.00
2019-05-17T23:33:20.295Z,15.00
2019-05-17T23:34:20.306Z,14.60
2019-05-17T23:35:20.294Z,15.00
2019-05-17T23:36:20.654Z,15.50
2019-05-17T23:37:20.241Z,15.90
2019-05-17T23:38:20.308Z,17.30
2019-05-17T23:39:20.240Z,16.90
2019-05-17T23:40:20.246Z,17.40
2019-05-17T23:41:20.263Z,18.10
2019-05-17T23:42:20.511Z,17.30
2019-05-17T23:43:20.219Z,16.80
2019-05-17T23:44:20.198Z,15.70
2019-05-17T23:45:20.196Z,17.10
2019-05-17T23:46:20.163Z,17.00
2019-05-17T23:47:20.184Z,17.10
2019-05-17T23:48:20.439Z,17.30
2019-05-17T23:49:20.186Z,18.10
2019-05-17T23:50:20.151Z,18.30
2019-05-17T23:51:20.113Z,18.10
2019-05-17T23:52:20.108Z,19.30
2019-05-17T23:53:20.097Z,19.30
2019-05-17T23:54:20.353Z,19.50
2019-05-17T23:55:20.080Z,19.60
2019-05-17T23:56:20.066Z,19.20
2019-05-17T23:57:20.055Z,20.90
2019-05-17T23:58:20.045Z,23.00
2019-05-17T23:59:20.341Z,22.50
